createdAt,value
2023-02-23T00:00:01.245Z,17.20
2023-02-23T00:02:45.964Z,18.08
2023-02-23T00:05:19.880Z,15.82
2023-02-23T00:07:54.080Z,17.65
2023-02-23T00:10:30.620Z,17.10
2023-02-23T00:13:04.998Z,18.13
2023-02-23T00:15:37.110Z,18.52
2023-02-23T00:18:09.920Z,19.10
2023-02-23T00:20:48.517Z,19.75
2023-02-23T00:23:28.338Z,18.05
2023-02-23T00:26:05.102Z,19.58
2023-02-23T00:28:37.966Z,18.25
2023-02-23T00:31:12.029Z,18.42
2023-02-23T00:33:44.822Z,17.00
2023-02-23T00:36:17.025Z,17.73
2023-02-23T00:38:53.648Z,18.90
2023-02-23T00:41:31.212Z,18.50
2023-02-23T00:44:03.311Z,17.15
2023-02-23T00:46:35.304Z,16.13
2023-02-23T00:49:07.833Z,17.88
2023-02-23T00:51:41.907Z,18.45
2023-02-23T00:54:15.391Z,16.77
2023-02-23T00:56:48.875Z,17.92
2023-02-23T00:59:21.321Z,18.02
2023-02-23T01:01:53.863Z,17.30
2023-02-23T01:04:26.496Z,17.00
2023-02-23T01:06:58.589Z,17.33
2023-02-23T01:09:30.722Z,17.85
2023-02-23T01:12:07.298Z,18.15
2023-02-23T01:14:39.476Z,16.85
2023-02-23T01:17:13.604Z,16.90
2023-02-23T01:19:45.713Z,18.27
2023-02-23T01:22:17.677Z,15.95
2023-02-23T01:24:49.749Z,17.65
2023-02-23T01:27:21.728Z,17.75
2023-02-23T01:29:54.900Z,17.33
2023-02-23T01:32:27.101Z,17.77
2023-02-23T01:34:59.057Z,18.45
2023-02-23T01:37:35.360Z,17.55
2023-02-23T01:40:28.828Z,15.65
2023-02-23T01:43:13.893Z,16.70
2023-02-23T01:45:49.339Z,17.30
2023-02-23T01:48:34.358Z,15.82
2023-02-23T01:51:11.674Z,17.02
2023-02-23T01:53:55.931Z,17.58
2023-02-23T01:56:43.571Z,18.63
2023-02-23T01:59:18.662Z,18.55
2023-02-23T02:01:50.875Z,18.77
2023-02-23T02:04:25.312Z,19.58
2023-02-23T02:07:01.413Z,20.52
2023-02-23T02:09:55.063Z,18.50
2023-02-23T02:12:53.238Z,17.90
2023-02-23T02:15:32.643Z,20.80
2023-02-23T02:18:31.452Z,19.58
2023-02-23T02:21:41.579Z,21.23
2023-02-23T02:24:54.797Z,20.77
2023-02-23T02:28:11.397Z,20.05
2023-02-23T02:31:21.935Z,21.05
2023-02-23T02:34:34.013Z,21.52
2023-02-23T02:38:01.724Z,22.27
2023-02-23T02:40:54.782Z,20.65
2023-02-23T02:44:00.676Z,22.55
2023-02-23T02:46:48.858Z,20.95
2023-02-23T02:49:32.628Z,24.38
2023-02-23T02:52:30.822Z,20.92
2023-02-23T02:55:17.463Z,22.67
2023-02-23T02:57:57.040Z,23.02
2023-02-23T03:01:04.567Z,21.20
2023-02-23T03:04:15.893Z,22.55
2023-02-23T03:07:42.115Z,20.67
2023-02-23T03:11:00.426Z,21.58
2023-02-23T03:14:43.773Z,21.85
2023-02-23T03:18:04.022Z,22.75
2023-02-23T03:21:23.731Z,23.35
2023-02-23T03:24:56.409Z,22.13
2023-02-23T03:28:20.346Z,22.05
2023-02-23T03:32:07.085Z,21.85
2023-02-23T03:35:28.385Z,22.13
2023-02-23T03:38:43.396Z,21.08
2023-02-23T03:41:56.244Z,22.92
2023-02-23T03:45:09.543Z,23.70
2023-02-23T03:48:21.841Z,21.48
2023-02-23T03:51:38.651Z,22.90
2023-02-23T03:55:16.574Z,21.92
2023-02-23T03:58:30.277Z,22.20
2023-02-23T04:01:43.015Z,23.30
2023-02-23T04:04:54.765Z,23.35
2023-02-23T04:08:07.995Z,22.77
2023-02-23T04:11:50.508Z,23.30
2023-02-23T04:15:12.320Z,24.45
2023-02-23T04:17:56.777Z,23.05
2023-02-23T04:20:29.131Z,22.65
2023-02-23T04:23:02.018Z,23.35
2023-02-23T04:25:34.247Z,22.40
2023-02-23T04:28:06.296Z,22.45
2023-02-23T04:30:38.359Z,23.02
2023-02-23T04:33:10.695Z,22.38
2023-02-23T04:35:42.762Z,22.70
2023-02-23T04:38:14.943Z,23.30
2023-02-23T04:40:47.124Z,25.02
2023-02-23T04:43:19.346Z,23.08
2023-02-23T04:45:51.557Z,22.10
2023-02-23T04:48:25.176Z,20.75
2023-02-23T04:50:57.510Z,21.67
2023-02-23T04:53:29.532Z,21.52
2023-02-23T04:56:01.553Z,21.88
2023-02-23T04:58:33.812Z,21.60
2023-02-23T05:01:09.810Z,22.02
2023-02-23T05:03:42.058Z,23.13
2023-02-23T05:06:14.617Z,23.10
2023-02-23T05:08:47.919Z,23.30
2023-02-23T05:11:20.361Z,21.58
2023-02-23T05:13:53.239Z,23.73
2023-02-23T05:16:26.126Z,21.30
2023-02-23T05:18:58.894Z,23.90
2023-02-23T05:21:31.141Z,21.08
2023-02-23T05:24:03.316Z,20.75
2023-02-23T05:26:36.638Z,22.75
2023-02-23T05:29:08.721Z,22.00
2023-02-23T05:31:40.873Z,22.08
2023-02-23T05:34:12.966Z,24.20
2023-02-23T05:36:45.388Z,23.05
2023-02-23T05:39:17.352Z,22.25
2023-02-23T05:41:49.332Z,22.80
2023-02-23T05:44:21.512Z,22.90
2023-02-23T05:46:53.640Z,24.00
2023-02-23T05:49:25.644Z,22.80
2023-02-23T05:51:57.670Z,22.92
2023-02-23T05:54:29.621Z,21.63
2023-02-23T05:57:02.320Z,21.23
2023-02-23T05:59:34.621Z,21.48
2023-02-23T06:02:06.672Z,21.90
2023-02-23T06:04:38.693Z,22.42
2023-02-23T06:07:10.889Z,20.90
2023-02-23T06:09:44.614Z,21.85
2023-02-23T06:12:17.061Z,22.15
2023-02-23T06:14:50.748Z,22.77
2023-02-23T06:17:23.863Z,21.17
2023-02-23T06:19:55.858Z,22.83
2023-02-23T06:22:28.143Z,22.15
2023-02-23T06:25:00.112Z,21.67
2023-02-23T06:27:36.854Z,21.95
2023-02-23T06:30:11.400Z,21.80
2023-02-23T06:32:43.672Z,20.70
2023-02-23T06:35:15.810Z,20.45
2023-02-23T06:37:48.050Z,24.90
2023-02-23T06:40:20.636Z,20.88
2023-02-23T06:42:53.225Z,21.30
2023-02-23T06:45:25.358Z,20.83
2023-02-23T06:47:58.329Z,21.55
2023-02-23T06:50:31.557Z,20.95
2023-02-23T06:53:03.892Z,21.50
2023-02-23T06:55:36.172Z,22.20
2023-02-23T06:58:08.332Z,22.15
2023-02-23T07:00:42.975Z,24.45
2023-02-23T07:03:15.367Z,22.70
2023-02-23T07:05:47.369Z,21.02
2023-02-23T07:08:20.960Z,20.40
2023-02-23T07:10:53.247Z,20.77
2023-02-23T07:13:25.311Z,19.02
2023-02-23T07:15:58.606Z,20.27
2023-02-23T07:18:30.903Z,20.73
2023-02-23T07:21:03.415Z,20.98
2023-02-23T07:27:27.597Z,21.30
2023-02-23T07:29:59.636Z,20.33
2023-02-23T07:32:34.171Z,20.50
2023-02-23T07:35:07.064Z,20.42
2023-02-23T07:37:39.555Z,19.73
2023-02-23T07:40:13.579Z,17.55
2023-02-23T07:42:45.740Z,17.63
2023-02-23T07:45:17.991Z,17.90
2023-02-23T07:47:50.071Z,17.08
2023-02-23T07:50:22.096Z,15.30
2023-02-23T07:52:56.605Z,13.10
2023-02-23T07:55:28.713Z,12.18
2023-02-23T07:58:01.607Z,12.13
2023-02-23T08:00:35.225Z,12.63
2023-02-23T08:03:10.207Z,12.40
2023-02-23T08:05:44.850Z,12.27
2023-02-23T08:08:16.937Z,11.85
2023-02-23T08:10:50.021Z,12.57
2023-02-23T08:13:22.142Z,11.68
2023-02-23T08:15:54.111Z,12.50
2023-02-23T08:18:27.873Z,13.25
2023-02-23T08:21:04.144Z,13.35
2023-02-23T08:23:38.406Z,13.20
2023-02-23T08:26:27.351Z,14.00
2023-02-23T08:28:59.633Z,13.68
2023-02-23T08:31:32.133Z,14.60
2023-02-23T08:34:05.219Z,14.43
2023-02-23T08:36:37.834Z,13.20
2023-02-23T08:39:12.494Z,13.23
2023-02-23T08:41:44.733Z,14.85
2023-02-23T08:44:16.990Z,12.98
2023-02-23T08:46:50.336Z,13.82
2023-02-23T08:49:23.420Z,12.88
2023-02-23T08:51:56.277Z,13.52
2023-02-23T08:54:28.770Z,13.50
2023-02-23T08:57:01.482Z,11.88
2023-02-23T08:59:33.818Z,13.48
2023-02-23T09:02:08.537Z,13.43
2023-02-23T09:04:43.919Z,14.02
2023-02-23T09:07:17.711Z,13.07
2023-02-23T09:09:56.630Z,12.40
2023-02-23T09:12:29.122Z,11.27
2023-02-23T09:15:02.342Z,12.15
2023-02-23T09:17:34.965Z,12.25
2023-02-23T09:20:07.690Z,12.25
2023-02-23T09:22:48.918Z,12.23
2023-02-23T09:25:23.160Z,11.75
2023-02-23T09:28:02.604Z,11.05
2023-02-23T09:30:35.869Z,11.50
2023-02-23T09:33:09.116Z,11.52
2023-02-23T09:35:41.580Z,10.60
2023-02-23T09:38:13.780Z,10.15
2023-02-23T09:40:53.297Z,9.65
2023-02-23T09:43:42.610Z,9.57
2023-02-23T09:46:32.122Z,9.45
2023-02-23T09:49:20.354Z,7.80
2023-02-23T09:51:59.062Z,8.73
2023-02-23T09:54:35.188Z,10.35
2023-02-23T09:57:16.645Z,10.77
2023-02-23T09:59:54.111Z,11.27
2023-02-23T10:02:43.827Z,9.90
2023-02-23T10:06:01.737Z,9.57
2023-02-23T10:08:52.283Z,9.80
2023-02-23T10:11:53.259Z,7.80
2023-02-23T10:14:53.114Z,8.50
2023-02-23T10:17:47.911Z,13.13
2023-02-23T10:20:55.011Z,13.00
2023-02-23T10:23:48.053Z,8.65
2023-02-23T10:26:32.580Z,7.10
2023-02-23T10:29:29.614Z,6.90
2023-02-23T10:32:18.603Z,7.10
2023-02-23T10:35:17.314Z,7.30
2023-02-23T10:37:53.618Z,7.72
2023-02-23T10:40:28.984Z,7.22
2023-02-23T10:43:04.520Z,7.70
2023-02-23T10:45:44.677Z,7.10
2023-02-23T10:48:26.898Z,7.65
2023-02-23T10:51:06.574Z,5.90
2023-02-23T10:53:47.040Z,5.95
2023-02-23T10:56:38.065Z,6.35
2023-02-23T10:59:21.314Z,5.63
2023-02-23T11:02:02.357Z,6.97
2023-02-23T11:04:56.914Z,5.13
2023-02-23T11:07:33.278Z,4.60
2023-02-23T11:10:27.443Z,6.07
2023-02-23T11:12:59.602Z,5.43
2023-02-23T11:15:54.421Z,5.32
2023-02-23T11:18:31.972Z,5.25
2023-02-23T11:21:13.151Z,5.68
2023-02-23T11:23:58.977Z,5.00
2023-02-23T11:26:48.229Z,5.22
2023-02-23T11:29:28.065Z,4.40
2023-02-23T11:32:19.782Z,4.60
2023-02-23T11:35:21.899Z,4.25
2023-02-23T11:37:59.718Z,7.63
2023-02-23T11:41:04.862Z,5.40
2023-02-23T11:43:57.567Z,3.38
2023-02-23T11:46:35.291Z,3.75
2023-02-23T11:49:19.464Z,3.75
2023-02-23T11:51:59.431Z,3.78
2023-02-23T11:54:43.861Z,4.20
2023-02-23T11:57:26.566Z,3.75
2023-02-23T12:00:13.311Z,3.63
2023-02-23T12:03:00.923Z,4.40
2023-02-23T12:05:34.277Z,3.75
2023-02-23T12:08:34.419Z,3.92
2023-02-23T12:11:20.731Z,4.15
2023-02-23T12:14:18.841Z,7.13
2023-02-23T12:17:19.837Z,6.32
2023-02-23T12:20:06.778Z,7.30
2023-02-23T12:22:54.353Z,7.90
2023-02-23T12:26:00.737Z,6.32
2023-02-23T12:29:32.012Z,5.45
2023-02-23T12:32:18.220Z,6.60
2023-02-23T12:35:17.264Z,6.75
2023-02-23T12:38:19.301Z,6.20
2023-02-23T12:41:19.906Z,6.75
2023-02-23T12:44:38.902Z,5.65
2023-02-23T12:47:27.355Z,6.75
2023-02-23T12:50:17.919Z,5.82
2023-02-23T12:53:14.776Z,5.63
2023-02-23T12:56:16.351Z,6.10
2023-02-23T12:59:30.468Z,4.90
2023-02-23T13:02:39.191Z,4.95
2023-02-23T13:05:25.800Z,5.20
2023-02-23T13:08:29.427Z,5.00
2023-02-23T13:11:40.487Z,4.55
2023-02-23T13:14:48.178Z,5.50
2023-02-23T13:17:40.568Z,4.70
2023-02-23T13:20:33.639Z,4.28
2023-02-23T13:23:43.258Z,4.90
2023-02-23T13:27:20.674Z,5.00
2023-02-23T13:30:02.393Z,4.50
2023-02-23T13:32:39.219Z,4.80
2023-02-23T13:35:17.201Z,4.80
2023-02-23T13:38:00.010Z,4.50
2023-02-23T13:40:54.732Z,3.97
2023-02-23T13:43:53.192Z,5.20
2023-02-23T13:46:48.782Z,4.57
2023-02-23T13:49:55.121Z,5.13
2023-02-23T13:52:47.317Z,4.43
2023-02-23T13:55:26.407Z,5.43
2023-02-23T13:58:32.174Z,5.85
2023-02-23T14:01:17.325Z,5.20
2023-02-23T14:04:03.260Z,4.25
2023-02-23T14:06:40.256Z,4.30
2023-02-23T14:09:37.764Z,4.40
2023-02-23T14:12:32.806Z,4.40
2023-02-23T14:15:29.838Z,4.75
2023-02-23T14:18:25.899Z,4.45
2023-02-23T14:21:26.690Z,4.68
2023-02-23T14:24:27.866Z,4.90
2023-02-23T14:27:38.479Z,5.00
2023-02-23T14:30:21.194Z,5.25
2023-02-23T14:33:21.212Z,5.40
2023-02-23T14:36:25.674Z,4.90
2023-02-23T14:39:10.543Z,4.40
2023-02-23T14:41:54.368Z,4.53
2023-02-23T14:44:41.520Z,4.82
2023-02-23T14:47:23.940Z,4.53
2023-02-23T14:50:00.936Z,5.13
2023-02-23T14:52:40.672Z,4.93
2023-02-23T14:55:12.912Z,4.80
2023-02-23T14:57:54.106Z,5.18
2023-02-23T15:00:39.031Z,4.43
2023-02-23T15:03:13.879Z,5.32
2023-02-23T15:05:46.452Z,5.57
2023-02-23T15:08:28.964Z,5.65
2023-02-23T15:11:12.229Z,5.90
2023-02-23T15:13:51.917Z,6.80
2023-02-23T15:16:35.044Z,5.72
2023-02-23T15:19:07.738Z,6.22
2023-02-23T15:21:52.910Z,6.25
2023-02-23T15:24:32.605Z,5.43
2023-02-23T15:27:27.105Z,5.20
2023-02-23T15:30:31.766Z,6.95
2023-02-23T15:33:28.620Z,6.15
2023-02-23T15:36:14.632Z,6.25
2023-02-23T15:38:56.669Z,6.47
2023-02-23T15:41:36.060Z,6.75
2023-02-23T15:44:22.779Z,7.28
2023-02-23T15:47:28.576Z,5.90
2023-02-23T15:50:27.651Z,5.80
2023-02-23T15:53:49.183Z,6.55
2023-02-23T15:56:29.564Z,6.47
2023-02-23T15:59:24.018Z,6.35
2023-02-23T16:02:10.977Z,5.70
2023-02-23T16:04:49.946Z,6.68
2023-02-23T16:07:27.951Z,6.50
2023-02-23T16:10:27.291Z,6.70
2023-02-23T16:13:03.374Z,6.28
2023-02-23T16:15:38.145Z,6.78
2023-02-23T16:18:19.228Z,7.03
2023-02-23T16:21:01.755Z,6.53
2023-02-23T16:23:45.808Z,5.40
2023-02-23T16:26:30.460Z,5.80
2023-02-23T16:29:18.855Z,6.50
2023-02-23T16:32:03.401Z,6.30
2023-02-23T16:34:54.935Z,5.50
2023-02-23T16:37:31.399Z,6.97
2023-02-23T16:40:04.899Z,6.72
2023-02-23T16:42:39.616Z,7.13
2023-02-23T16:45:17.420Z,8.18
2023-02-23T16:47:51.874Z,6.88
2023-02-23T16:50:25.692Z,7.78
2023-02-23T16:53:02.222Z,7.25
2023-02-23T16:55:39.899Z,8.25
2023-02-23T16:58:21.791Z,8.30
2023-02-23T17:00:56.647Z,8.63
2023-02-23T17:03:32.670Z,8.20
2023-02-23T17:06:06.882Z,8.50
2023-02-23T17:08:45.927Z,7.75
2023-02-23T17:11:25.131Z,7.43
2023-02-23T17:13:58.617Z,8.05
2023-02-23T17:16:31.060Z,8.02
2023-02-23T17:19:03.374Z,8.43
2023-02-23T17:21:35.796Z,8.00
2023-02-23T17:24:08.204Z,8.23
2023-02-23T17:26:42.301Z,7.57
2023-02-23T17:29:15.340Z,7.25
2023-02-23T17:31:48.937Z,7.80
2023-02-23T17:34:21.719Z,7.35
2023-02-23T17:36:55.214Z,6.95
2023-02-23T17:39:28.403Z,6.40
2023-02-23T17:42:01.491Z,6.65
2023-02-23T17:44:35.022Z,8.07
2023-02-23T17:47:08.302Z,6.93
2023-02-23T17:49:41.967Z,7.53
2023-02-23T17:52:14.576Z,7.03
2023-02-23T17:54:46.971Z,7.50
2023-02-23T17:57:19.512Z,7.85
2023-02-23T17:59:54.405Z,7.32
2023-02-23T18:02:27.421Z,7.65
2023-02-23T18:05:00.298Z,7.10
2023-02-23T18:07:33.347Z,7.20
2023-02-23T18:10:07.008Z,7.50
2023-02-23T18:12:40.735Z,8.57
2023-02-23T18:15:13.986Z,7.70
2023-02-23T18:17:47.935Z,8.15
2023-02-23T18:20:20.919Z,8.75
2023-02-23T18:22:54.684Z,7.43
2023-02-23T18:25:29.231Z,7.10
2023-02-23T18:28:10.123Z,7.45
2023-02-23T18:30:45.104Z,8.05
2023-02-23T18:33:17.980Z,7.88
2023-02-23T18:35:50.955Z,8.63
2023-02-23T18:38:24.260Z,7.90
2023-02-23T18:40:57.582Z,8.30
2023-02-23T18:43:31.042Z,8.57
2023-02-23T18:46:11.179Z,8.35
2023-02-23T18:48:45.249Z,7.95
2023-02-23T18:51:23.037Z,8.52
2023-02-23T18:53:57.513Z,9.77
2023-02-23T18:56:32.130Z,8.95
2023-02-23T18:59:05.430Z,10.23
2023-02-23T19:01:38.943Z,9.63
2023-02-23T19:04:13.365Z,9.93
2023-02-23T19:06:47.749Z,8.77
2023-02-23T19:09:21.722Z,9.38
2023-02-23T19:11:54.931Z,10.45
2023-02-23T19:14:47.819Z,10.45
2023-02-23T19:17:22.515Z,9.23
2023-02-23T19:19:57.873Z,10.30
2023-02-23T19:22:32.170Z,9.60
2023-02-23T19:25:05.454Z,10.60
2023-02-23T19:27:39.637Z,9.05
2023-02-23T19:30:14.791Z,9.77
2023-02-23T19:32:49.006Z,10.52
2023-02-23T19:35:22.619Z,8.82
2023-02-23T19:37:58.709Z,9.57
2023-02-23T19:40:39.892Z,9.63
2023-02-23T19:43:16.305Z,10.20
2023-02-23T19:45:50.277Z,9.18
2023-02-23T19:48:26.055Z,10.10
2023-02-23T19:51:00.783Z,9.02
2023-02-23T19:53:34.179Z,8.70
2023-02-23T19:56:18.155Z,8.88
2023-02-23T19:58:52.559Z,8.85
2023-02-23T20:01:30.816Z,9.85
2023-02-23T20:04:06.733Z,8.88
2023-02-23T20:06:47.278Z,11.13
2023-02-23T20:09:20.809Z,9.30
2023-02-23T20:11:58.569Z,10.85
2023-02-23T20:14:33.456Z,10.27
2023-02-23T20:17:06.629Z,9.95
2023-02-23T20:19:41.215Z,9.70
2023-02-23T20:22:14.826Z,10.90
2023-02-23T20:24:50.503Z,10.45
2023-02-23T20:27:24.340Z,9.30
2023-02-23T20:30:00.693Z,9.57
2023-02-23T20:32:35.471Z,10.10
2023-02-23T20:35:11.585Z,10.48
2023-02-23T20:37:46.744Z,11.50
2023-02-23T20:40:23.455Z,10.77
2023-02-23T20:42:58.218Z,10.88
2023-02-23T20:45:31.723Z,11.57
2023-02-23T20:48:09.882Z,10.98
2023-02-23T20:50:43.119Z,11.68
2023-02-23T20:53:16.310Z,11.48
2023-02-23T20:55:50.621Z,12.15
2023-02-23T20:58:25.612Z,11.55
2023-02-23T21:01:07.337Z,15.35
2023-02-23T21:03:45.158Z,20.83
2023-02-23T21:06:21.463Z,16.38
2023-02-23T21:09:02.098Z,15.93
2023-02-23T21:11:50.707Z,15.60
2023-02-23T21:14:24.126Z,16.52
2023-02-23T21:16:57.244Z,15.82
2023-02-23T21:19:32.268Z,16.02
2023-02-23T21:22:05.077Z,16.98
2023-02-23T21:24:44.527Z,14.48
2023-02-23T21:27:17.478Z,15.43
2023-02-23T21:29:53.117Z,16.95
2023-02-23T21:32:34.630Z,15.52
2023-02-23T21:35:13.163Z,16.73
2023-02-23T21:37:47.723Z,15.43
2023-02-23T21:40:22.381Z,17.40
2023-02-23T21:42:56.859Z,16.63
2023-02-23T21:45:29.803Z,16.95
2023-02-23T21:48:04.592Z,16.88
2023-02-23T21:50:37.854Z,16.40
2023-02-23T21:53:12.960Z,17.17
2023-02-23T21:55:45.438Z,17.88
2023-02-23T21:58:18.418Z,16.80
2023-02-23T22:00:51.315Z,16.60
2023-02-23T22:03:24.021Z,17.73
2023-02-23T22:06:01.209Z,17.70
2023-02-23T22:08:36.529Z,17.33
2023-02-23T22:11:19.886Z,18.13
2023-02-23T22:14:00.375Z,17.15
2023-02-23T22:16:37.986Z,18.08
2023-02-23T22:19:12.750Z,16.42
2023-02-23T22:21:48.519Z,16.58
2023-02-23T22:24:21.832Z,17.08
2023-02-23T22:26:55.259Z,18.27
2023-02-23T22:29:27.875Z,16.92
2023-02-23T22:32:00.419Z,16.48
2023-02-23T22:34:32.795Z,16.05
2023-02-23T22:37:05.192Z,15.07
2023-02-23T22:39:42.411Z,17.23
2023-02-23T22:42:15.465Z,15.63
2023-02-23T22:44:48.258Z,16.90
2023-02-23T22:47:21.752Z,18.40
2023-02-23T22:49:55.012Z,18.65
2023-02-23T22:52:29.933Z,18.45
2023-02-23T22:55:04.045Z,17.52
2023-02-23T22:57:36.617Z,18.02
2023-02-23T23:00:15.175Z,17.63
2023-02-23T23:02:49.709Z,19.08
2023-02-23T23:05:22.408Z,19.20
2023-02-23T23:07:56.971Z,18.75
2023-02-23T23:10:30.501Z,18.67
2023-02-23T23:13:03.221Z,19.00
2023-02-23T23:15:35.940Z,17.25
2023-02-23T23:18:14.550Z,17.35
2023-02-23T23:20:55.403Z,18.23
2023-02-23T23:23:34.844Z,15.90
2023-02-23T23:26:14.771Z,17.92
2023-02-23T23:28:51.940Z,17.33
2023-02-23T23:31:32.271Z,19.40
2023-02-23T23:34:10.727Z,16.23
2023-02-23T23:36:53.166Z,17.52
2023-02-23T23:39:27.258Z,19.42
2023-02-23T23:42:01.748Z,17.85
2023-02-23T23:44:36.753Z,19.30
2023-02-23T23:47:09.044Z,19.67
2023-02-23T23:49:42.522Z,18.55
2023-02-23T23:52:17.791Z,20.90
2023-02-23T23:54:49.928Z,20.52
2023-02-23T23:57:23.079Z,19.30
2023-02-23T23:59:56.355Z,19.15
